Time;durP1;ratioP1;P1;durP2;ratioP2;P2;SDS_P1;SDS_P2;PMS_P1;PMS_P2;Temp;Humidity;BMP_temperature;BMP_pressure;BME280_temperature;BME280_humidity;BME280_pressure;Samples;Min_cycle;Max_cycle;Signal;HPM_P1;HPM_P2
2020/12/26 00:02:14;;;;;;;925.43;836.23;;;;;;;;;;5075315;28;20997;-65
2020/12/26 00:04:41;;;;;;;792.97;727.60;;;;;;;;;;5078273;28;20280;-63
2020/12/26 00:07:07;;;;;;;674.10;619.90;;;;;;;;;;5080046;28;20180;-64
2020/12/26 00:09:34;;;;;;;769.33;705.60;;;;;;;;;;5076291;28;20225;-66
2020/12/26 00:12:01;;;;;;;571.37;531.27;;;;;;;;;;5076494;28;20223;-65
2020/12/26 00:14:27;;;;;;;587.50;548.67;;;;;;;;;;5077233;28;20351;-65
2020/12/26 00:16:58;;;;;;;719.33;667.00;;;;;;;;;;5074741;28;20766;-64
2020/12/26 00:19:25;;;;;;;636.77;592.17;;;;;;;;;;5079325;28;20181;-65
2020/12/26 00:21:52;;;;;;;671.50;624.43;;;;;;;;;;5081592;28;20181;-64
2020/12/26 00:24:19;;;;;;;724.83;666.60;;;;;;;;;;5071443;28;20176;-62
2020/12/26 00:26:46;;;;;;;735.97;681.27;;;;;;;;;;5070174;28;20274;-62
2020/12/26 00:29:14;;;;;;;717.20;662.97;;;;;;;;;;5068297;28;20176;-64
2020/12/26 00:31:40;;;;;;;681.03;630.53;;;;;;;;;;5076153;28;20260;-64
2020/12/26 00:34:07;;;;;;;683.97;635.10;;;;;;;;;;5072202;28;20192;-64
2020/12/26 00:36:38;;;;;;;682.37;631.73;;;;;;;;;;5076641;28;20699;-65
2020/12/26 00:39:05;;;;;;;702.60;645.00;;;;;;;;;;5076583;28;20690;-66
2020/12/26 00:41:31;;;;;;;659.53;608.23;;;;;;;;;;5077693;28;20263;-64
2020/12/26 00:43:58;;;;;;;673.00;622.70;;;;;;;;;;5079281;28;20185;-65
2020/12/26 00:46:25;;;;;;;705.00;648.13;;;;;;;;;;5071174;28;20339;-64
2020/12/26 00:48:52;;;;;;;653.90;605.73;;;;;;;;;;5079057;28;20187;-62
2020/12/26 00:51:19;;;;;;;634.73;588.10;;;;;;;;;;5074616;28;20186;-65
2020/12/26 00:53:46;;;;;;;709.10;653.27;;;;;;;;;;5075197;28;20177;-62
2020/12/26 00:56:13;;;;;;;643.60;593.63;;;;;;;;;;5075324;28;20211;-64
2020/12/26 00:58:41;;;;;;;543.03;503.10;;;;;;;;;;5077180;28;20184;-63
2020/12/26 01:01:09;;;;;;;480.57;448.73;;;;;;;;;;5072140;28;20196;-65
2020/12/26 01:03:37;;;;;;;815.10;737.60;;;;;;;;;;5074934;28;20253;-66
2020/12/26 01:06:04;;;;;;;630.13;582.53;;;;;;;;;;5077333;28;20180;-65
2020/12/26 01:08:31;;;;;;;688.30;630.50;;;;;;;;;;5070243;28;20178;-64
2020/12/26 01:10:57;;;;;;;681.97;626.73;;;;;;;;;;5068809;28;20301;-63
2020/12/26 01:13:24;;;;;;;656.50;604.70;;;;;;;;;;5070876;28;20185;-65
2020/12/26 01:15:52;;;;;;;716.13;661.70;;;;;;;;;;5067570;28;20232;-65
2020/12/26 01:18:19;;;;;;;843.07;764.20;;;;;;;;;;5069713;28;20189;-64
2020/12/26 01:20:45;;;;;;;659.43;605.80;;;;;;;;;;5074992;28;20283;-64
2020/12/26 01:23:12;;;;;;;630.37;583.97;;;;;;;;;;5072202;28;20249;-63
2020/12/26 01:25:39;;;;;;;761.53;697.30;;;;;;;;;;5075067;28;20185;-65
2020/12/26 13:56:41;;;;;;;716.47;663.97;;;;;;;;;;5097814;27;20649;-62
2020/12/26 13:59:08;;;;;;;739.83;681.30;;;;;;;;;;5099341;28;20203;-62
2020/12/26 14:01:34;;;;;;;764.07;711.97;;;;;;;;;;5098963;28;20269;-63
2020/12/26 14:04:01;;;;;;;713.93;666.87;;;;;;;;;;5096098;28;20667;-64
2020/12/26 14:06:32;;;;;;;779.57;725.87;;;;;;;;;;5100238;28;20214;-63
2020/12/26 14:08:59;;;;;;;622.27;581.47;;;;;;;;;;5099155;28;20174;-63
2020/12/26 14:11:26;;;;;;;575.20;540.53;;;;;;;;;;5096886;28;20185;-63
2020/12/26 14:13:53;;;;;;;647.70;607.20;;;;;;;;;;5098122;28;20209;-63
2020/12/26 14:16:23;;;;;;;706.70;659.77;;;;;;;;;;5096094;28;20333;-64
2020/12/26 14:18:51;;;;;;;807.80;754.17;;;;;;;;;;5096142;28;20214;-64
2020/12/26 14:21:18;;;;;;;735.43;684.97;;;;;;;;;;5083380;28;20273;-62
2020/12/26 14:23:45;;;;;;;741.67;689.70;;;;;;;;;;5082886;28;20186;-62
2020/12/26 14:26:11;;;;;;;726.73;678.17;;;;;;;;;;5097186;28;20719;-62
2020/12/26 14:28:39;;;;;;;694.27;647.90;;;;;;;;;;5098026;28;20170;-61
2020/12/26 14:31:06;;;;;;;734.03;681.30;;;;;;;;;;5097545;28;20223;-63
2020/12/26 14:33:33;;;;;;;775.67;724.27;;;;;;;;;;5094522;28;20209;-62
2020/12/26 14:36:00;;;;;;;758.53;708.37;;;;;;;;;;5097109;28;20217;-63
2020/12/26 14:38:26;;;;;;;811.03;749.10;;;;;;;;;;5099129;27;20654;-62
2020/12/26 14:40:53;;;;;;;796.17;737.90;;;;;;;;;;5096072;28;20704;-62
2020/12/26 14:43:19;;;;;;;878.70;813.80;;;;;;;;;;5089491;28;20743;-63
2020/12/26 14:45:46;;;;;;;786.93;733.37;;;;;;;;;;5084477;28;20205;-63
2020/12/26 14:48:13;;;;;;;840.90;782.23;;;;;;;;;;5117195;28;20670;-60
2020/12/26 14:50:40;;;;;;;758.97;707.53;;;;;;;;;;5113117;27;20961;-63
2020/12/26 14:53:06;;;;;;;844.00;779.93;;;;;;;;;;5093798;28;20192;-61
2020/12/26 14:55:33;;;;;;;766.00;710.87;;;;;;;;;;5100500;28;20619;-61
2020/12/26 14:58:00;;;;;;;715.63;664.70;;;;;;;;;;5092144;28;20304;-63
2020/12/26 15:00:26;;;;;;;810.13;751.20;;;;;;;;;;5090277;28;20450;-61
2020/12/26 15:02:53;;;;;;;741.57;686.10;;;;;;;;;;5094489;28;20182;-61
2020/12/26 15:05:20;;;;;;;727.47;677.20;;;;;;;;;;5091525;28;20217;-62
2020/12/26 15:07:46;;;;;;;727.47;675.43;;;;;;;;;;5078484;28;20182;-63
2020/12/26 15:10:13;;;;;;;661.47;616.77;;;;;;;;;;5079466;28;20175;-64
2020/12/26 15:12:39;;;;;;;799.60;744.03;;;;;;;;;;5078444;28;20518;-64
2020/12/26 15:15:11;;;;;;;808.00;750.87;;;;;;;;;;5078069;28;20218;-63
2020/12/26 15:17:38;;;;;;;715.90;666.13;;;;;;;;;;5081618;28;20273;-64
2020/12/26 15:20:06;;;;;;;729.93;679.67;;;;;;;;;;5080826;28;20190;-64
2020/12/26 15:22:33;;;;;;;726.10;675.53;;;;;;;;;;5079832;28;20178;-64
2020/12/26 15:25:00;;;;;;;815.80;755.20;;;;;;;;;;5084080;28;20191;-63
2020/12/26 15:27:27;;;;;;;726.67;673.27;;;;;;;;;;5090649;28;20182;-62
2020/12/26 15:29:53;;;;;;;831.07;767.57;;;;;;;;;;5083761;28;20182;-63
2020/12/26 15:32:20;;;;;;;838.33;771.43;;;;;;;;;;5082427;28;20194;-64
2020/12/26 15:34:47;;;;;;;833.47;772.17;;;;;;;;;;5083771;28;20212;-63
2020/12/26 15:37:14;;;;;;;927.57;855.83;;;;;;;;;;5082594;28;20652;-64
2020/12/26 15:39:40;;;;;;;790.20;728.87;;;;;;;;;;5083077;28;20236;-64
2020/12/26 15:42:07;;;;;;;803.07;743.47;;;;;;;;;;5083481;28;20174;-63
2020/12/26 15:44:34;;;;;;;943.80;861.13;;;;;;;;;;5082889;28;20189;-63
2020/12/26 15:47:00;;;;;;;911.00;836.73;;;;;;;;;;5076043;28;20174;-63
2020/12/26 15:49:27;;;;;;;847.60;781.67;;;;;;;;;;5084532;28;20209;-64
2020/12/26 15:51:54;;;;;;;992.70;904.10;;;;;;;;;;5080563;28;20167;-63
2020/12/26 15:54:20;;;;;;;913.43;838.37;;;;;;;;;;5092987;28;20197;-63
2020/12/26 15:56:47;;;;;;;854.93;788.13;;;;;;;;;;5090709;28;20186;-62
2020/12/26 15:59:14;;;;;;;897.17;827.13;;;;;;;;;;5079395;28;20181;-64
2020/12/26 16:01:40;;;;;;;996.77;917.73;;;;;;;;;;5081081;28;20196;-63
2020/12/26 16:04:07;;;;;;;821.97;760.67;;;;;;;;;;5081621;28;20565;-62
2020/12/26 16:06:34;;;;;;;879.60;814.60;;;;;;;;;;5076006;28;20221;-63
2020/12/26 16:09:00;;;;;;;841.97;776.03;;;;;;;;;;5064712;28;20179;-63
2020/12/26 16:11:28;;;;;;;897.87;825.87;;;;;;;;;;5068025;28;20175;-63
2020/12/26 16:13:55;;;;;;;865.70;797.13;;;;;;;;;;5081557;28;20195;-65
2020/12/26 16:16:21;;;;;;;976.30;893.67;;;;;;;;;;5080527;28;20798;-64
2020/12/26 16:18:48;;;;;;;839.60;771.70;;;;;;;;;;5079010;28;20220;-63
2020/12/26 16:21:16;;;;;;;934.00;856.30;;;;;;;;;;5086577;28;20185;-63
2020/12/26 16:23:44;;;;;;;849.27;786.23;;;;;;;;;;5087468;28;20182;-63
2020/12/26 16:26:11;;;;;;;876.47;808.67;;;;;;;;;;5082834;28;20187;-63
2020/12/26 16:28:37;;;;;;;870.20;805.63;;;;;;;;;;5070533;28;20649;-63
2020/12/26 16:31:05;;;;;;;841.17;779.20;;;;;;;;;;5105227;28;20182;-65
2020/12/26 16:33:33;;;;;;;934.87;860.40;;;;;;;;;;5092327;28;20175;-64
2020/12/26 16:36:00;;;;;;;776.63;719.50;;;;;;;;;;5093005;28;20551;-65
2020/12/26 16:38:27;;;;;;;913.47;842.07;;;;;;;;;;5088934;28;20178;-63
2020/12/26 16:40:56;;;;;;;898.73;823.80;;;;;;;;;;5080611;28;20183;-63
2020/12/26 16:43:22;;;;;;;838.93;775.53;;;;;;;;;;5077781;28;20223;-63
2020/12/26 16:45:49;;;;;;;927.93;853.40;;;;;;;;;;5068642;28;20183;-64
2020/12/26 16:48:16;;;;;;;897.87;828.10;;;;;;;;;;5075675;28;20184;-64
2020/12/26 16:50:42;;;;;;;867.80;801.60;;;;;;;;;;5076510;28;20235;-66
2020/12/26 16:53:09;;;;;;;947.47;869.67;;;;;;;;;;5070370;28;20965;-65
2020/12/26 16:55:35;;;;;;;893.37;826.80;;;;;;;;;;5072291;28;20268;-66
2020/12/26 16:58:02;;;;;;;859.93;798.90;;;;;;;;;;5076264;28;20647;-64
2020/12/26 17:00:29;;;;;;;847.47;784.63;;;;;;;;;;5079538;28;20197;-64
2020/12/26 17:02:55;;;;;;;874.00;803.90;;;;;;;;;;5076757;28;20259;-64
2020/12/26 17:05:22;;;;;;;927.03;853.40;;;;;;;;;;5072246;28;20231;-63
2020/12/26 17:07:48;;;;;;;889.63;822.63;;;;;;;;;;5076094;28;20182;-62
2020/12/26 17:10:15;;;;;;;969.80;890.07;;;;;;;;;;5078742;28;20189;-63
2020/12/26 17:12:42;;;;;;;898.90;830.00;;;;;;;;;;5081473;28;20193;-61
2020/12/26 17:15:09;;;;;;;858.97;795.33;;;;;;;;;;5079974;28;20232;-61
2020/12/26 17:17:35;;;;;;;890.30;821.83;;;;;;;;;;5080250;28;20196;-62
2020/12/26 17:20:03;;;;;;;862.60;797.50;;;;;;;;;;5081448;28;20450;-60
2020/12/26 17:22:30;;;;;;;812.70;752.07;;;;;;;;;;5081655;28;20192;-62
2020/12/26 17:24:57;;;;;;;890.93;824.00;;;;;;;;;;5065374;28;20186;-62
2020/12/26 17:27:23;;;;;;;961.63;883.33;;;;;;;;;;5092451;28;20175;-63
2020/12/26 17:29:50;;;;;;;858.50;792.70;;;;;;;;;;5080816;28;20189;-64
2020/12/26 17:32:17;;;;;;;903.40;831.77;;;;;;;;;;5081626;28;20196;-62
2020/12/26 17:34:43;;;;;;;910.47;839.47;;;;;;;;;;5093261;28;20232;-63
2020/12/26 17:37:10;;;;;;;904.67;834.27;;;;;;;;;;5084458;28;20256;-62
2020/12/26 17:39:37;;;;;;;840.57;778.57;;;;;;;;;;5091214;28;20289;-61
2020/12/26 17:42:03;;;;;;;861.30;797.13;;;;;;;;;;5075978;28;20207;-63
2020/12/26 17:44:30;;;;;;;924.87;851.97;;;;;;;;;;5084721;28;20185;-62
2020/12/26 17:46:56;;;;;;;911.90;836.80;;;;;;;;;;5063276;28;20182;-62
2020/12/26 17:49:23;;;;;;;965.53;885.70;;;;;;;;;;5065452;28;20189;-62
2020/12/26 17:51:50;;;;;;;866.00;800.73;;;;;;;;;;5063921;28;21193;-63
2020/12/26 17:54:16;;;;;;;923.00;852.40;;;;;;;;;;5060672;28;20231;-64
2020/12/26 17:56:43;;;;;;;870.87;805.50;;;;;;;;;;5064497;28;20187;-64
2020/12/26 17:59:11;;;;;;;911.33;840.43;;;;;;;;;;5064418;28;20179;-63
2020/12/26 18:01:37;;;;;;;880.93;812.90;;;;;;;;;;5065514;28;20309;-64
2020/12/26 18:04:04;;;;;;;942.97;860.37;;;;;;;;;;5061495;28;20256;-65
2020/12/26 18:06:31;;;;;;;837.57;776.70;;;;;;;;;;5064127;28;20735;-64
2020/12/26 18:08:57;;;;;;;879.10;808.93;;;;;;;;;;5063489;28;20182;-63
2020/12/26 18:11:24;;;;;;;794.30;734.37;;;;;;;;;;5063084;28;20185;-62
2020/12/26 18:13:51;;;;;;;828.23;765.73;;;;;;;;;;5061754;28;20747;-63
2020/12/26 18:16:18;;;;;;;916.97;840.57;;;;;;;;;;5062136;28;20248;-64
2020/12/26 18:18:45;;;;;;;958.27;881.40;;;;;;;;;;5063695;28;20240;-64
2020/12/26 18:21:13;;;;;;;902.83;827.00;;;;;;;;;;5061017;28;20187;-63
2020/12/26 18:23:40;;;;;;;847.77;785.40;;;;;;;;;;5062223;28;20183;-65
2020/12/26 18:26:07;;;;;;;986.43;899.50;;;;;;;;;;5058818;28;20540;-62
2020/12/26 18:28:33;;;;;;;851.83;786.40;;;;;;;;;;5060761;28;20179;-62
2020/12/26 18:31:00;;;;;;;909.63;837.53;;;;;;;;;;5060575;28;20186;-66
2020/12/26 18:33:28;;;;;;;868.83;804.63;;;;;;;;;;5060416;28;20489;-62
2020/12/26 18:35:55;;;;;;;815.63;756.07;;;;;;;;;;5071876;28;20332;-63
2020/12/26 18:38:21;;;;;;;869.97;805.53;;;;;;;;;;5075944;28;20274;-62
2020/12/26 18:40:48;;;;;;;857.87;793.07;;;;;;;;;;5078059;28;20197;-62
2020/12/26 18:43:15;;;;;;;822.43;762.70;;;;;;;;;;5072011;28;20888;-65
2020/12/26 18:45:42;;;;;;;916.63;844.97;;;;;;;;;;5077162;28;20271;-63
2020/12/26 18:48:10;;;;;;;879.57;813.43;;;;;;;;;;5083980;28;20202;-62
2020/12/26 18:50:36;;;;;;;899.70;828.80;;;;;;;;;;5074383;28;20195;-62
2020/12/26 18:53:03;;;;;;;865.63;800.23;;;;;;;;;;5083288;28;20840;-64
2020/12/26 18:55:29;;;;;;;899.37;830.23;;;;;;;;;;5080986;28;20884;-65
2020/12/26 18:57:56;;;;;;;830.57;769.57;;;;;;;;;;5070969;28;20743;-62
2020/12/26 19:00:23;;;;;;;914.63;842.33;;;;;;;;;;5071820;28;20212;-63
2020/12/26 19:02:49;;;;;;;987.13;901.77;;;;;;;;;;5082656;28;20175;-66
2020/12/26 19:05:16;;;;;;;850.67;785.33;;;;;;;;;;5078040;28;20196;-64
2020/12/26 19:07:43;;;;;;;939.10;857.67;;;;;;;;;;5081044;28;20174;-64
2020/12/26 19:10:10;;;;;;;919.00;843.30;;;;;;;;;;5084343;28;20179;-64
2020/12/26 19:12:37;;;;;;;880.27;810.33;;;;;;;;;;5063881;28;20179;-65
2020/12/26 19:15:04;;;;;;;884.13;812.53;;;;;;;;;;5063559;28;20218;-64
2020/12/26 19:17:32;;;;;;;929.03;852.00;;;;;;;;;;5060828;28;20227;-65
2020/12/26 19:19:59;;;;;;;816.27;751.70;;;;;;;;;;5060644;28;20664;-64
2020/12/26 19:22:26;;;;;;;950.37;867.03;;;;;;;;;;5059852;28;20230;-63
2020/12/26 19:24:53;;;;;;;963.83;881.00;;;;;;;;;;5062233;28;20197;-63
2020/12/26 19:27:20;;;;;;;906.83;829.07;;;;;;;;;;5059433;28;20476;-64
2020/12/26 19:29:46;;;;;;;928.17;843.70;;;;;;;;;;5060241;28;20294;-62
2020/12/26 19:32:13;;;;;;;817.03;751.37;;;;;;;;;;5064054;28;20200;-65
2020/12/26 19:34:40;;;;;;;822.83;754.07;;;;;;;;;;5058489;28;20295;-65
2020/12/26 19:37:08;;;;;;;849.47;781.67;;;;;;;;;;5072752;28;20213;-65
2020/12/26 19:39:35;;;;;;;941.03;861.80;;;;;;;;;;5077689;28;20356;-64
2020/12/26 19:42:02;;;;;;;903.83;831.17;;;;;;;;;;5062796;28;20191;-66
2020/12/26 19:44:28;;;;;;;972.13;884.43;;;;;;;;;;5073228;27;20206;-62
2020/12/26 19:46:58;;;;;;;976.63;892.17;;;;;;;;;;5071167;28;20208;-63
2020/12/26 19:49:25;;;;;;;880.27;814.37;;;;;;;;;;5069785;28;20186;-67
2020/12/26 19:51:58;;;;;;;962.53;884.07;;;;;;;;;;5076180;28;20212;-65
2020/12/26 19:54:25;;;;;;;945.10;870.50;;;;;;;;;;5077900;28;20182;-66
2020/12/26 19:56:51;;;;;;;878.90;809.33;;;;;;;;;;5078614;28;20683;-63
2020/12/26 19:59:18;;;;;;;918.03;850.83;;;;;;;;;;5082287;28;20196;-64
2020/12/26 20:01:46;;;;;;;928.20;850.97;;;;;;;;;;5075204;28;20276;-65
2020/12/26 20:04:13;;;;;;;916.37;839.60;;;;;;;;;;5078045;28;20200;-65
2020/12/26 20:06:40;;;;;;;971.30;889.70;;;;;;;;;;5072024;28;20222;-64
2020/12/26 20:09:08;;;;;;;961.17;883.17;;;;;;;;;;5084230;28;20190;-62
2020/12/26 20:11:35;;;;;;;977.93;893.70;;;;;;;;;;5079629;28;20190;-63
2020/12/26 20:14:01;;;;;;;992.83;904.40;;;;;;;;;;5067904;28;20187;-63
2020/12/26 20:16:28;;;;;;;983.33;899.03;;;;;;;;;;5062700;28;20258;-62
2020/12/26 20:18:56;;;;;;;951.33;870.57;;;;;;;;;;5063862;28;20306;-62
2020/12/26 20:21:30;;;;;;;954.67;875.03;;;;;;;;;;5065801;28;20194;-62
2020/12/26 20:23:57;;;;;;;922.87;845.63;;;;;;;;;;5079975;28;20217;-62
2020/12/26 20:26:23;;;;;;;1020.53;926.60;;;;;;;;;;5066254;28;20278;-65
2020/12/26 20:28:50;;;;;;;935.37;861.40;;;;;;;;;;5076917;28;20262;-63
2020/12/26 20:31:17;;;;;;;992.47;901.87;;;;;;;;;;5077851;28;20487;-63
2020/12/26 20:33:44;;;;;;;919.63;849.03;;;;;;;;;;5081188;28;20221;-63
2020/12/26 20:36:13;;;;;;;982.50;902.70;;;;;;;;;;5067797;28;20221;-63
2020/12/26 20:38:39;;;;;;;945.83;871.37;;;;;;;;;;5076571;28;21087;-65
2020/12/26 20:41:06;;;;;;;993.20;910.87;;;;;;;;;;5077369;28;20236;-63
2020/12/26 20:43:33;;;;;;;1007.40;917.73;;;;;;;;;;5077581;28;20351;-64
2020/12/26 20:46:00;;;;;;;1060.07;960.20;;;;;;;;;;5075777;28;20201;-65
2020/12/26 20:48:27;;;;;;;935.47;861.53;;;;;;;;;;5092654;28;20182;-63
2020/12/26 20:50:54;;;;;;;905.47;830.33;;;;;;;;;;5082253;28;20182;-63
2020/12/26 20:53:21;;;;;;;1034.40;945.43;;;;;;;;;;5080202;28;20196;-64
2020/12/26 20:55:47;;;;;;;989.53;904.43;;;;;;;;;;5080461;28;20239;-62
2020/12/26 20:58:14;;;;;;;939.13;866.47;;;;;;;;;;5072907;28;20183;-63
2020/12/26 21:00:41;;;;;;;898.60;821.97;;;;;;;;;;5081115;28;20680;-64
2020/12/26 21:03:07;;;;;;;958.37;880.93;;;;;;;;;;5080912;28;20178;-63
2020/12/26 21:05:34;;;;;;;987.97;902.03;;;;;;;;;;5079660;28;20189;-62
2020/12/26 21:08:00;;;;;;;931.70;851.93;;;;;;;;;;5074765;28;20506;-63
2020/12/26 21:10:27;;;;;;;1018.60;930.90;;;;;;;;;;5080427;28;20193;-63
2020/12/26 21:12:54;;;;;;;972.73;889.73;;;;;;;;;;5076427;28;20313;-63
2020/12/26 21:15:21;;;;;;;999.83;921.23;;;;;;;;;;5077205;28;20392;-64
2020/12/26 21:17:47;;;;;;;1036.50;938.80;;;;;;;;;;5079002;28;20178;-63
2020/12/26 21:20:14;;;;;;;925.20;853.20;;;;;;;;;;5079139;28;20919;-63
2020/12/26 21:22:41;;;;;;;961.13;889.40;;;;;;;;;;5073736;28;20273;-64
2020/12/26 21:25:08;;;;;;;932.73;860.53;;;;;;;;;;5075227;28;20190;-63
2020/12/26 21:27:35;;;;;;;947.13;874.97;;;;;;;;;;5070320;28;20294;-64
2020/12/26 21:30:02;;;;;;;986.97;904.20;;;;;;;;;;5069810;28;20178;-63
2020/12/26 21:32:29;;;;;;;1010.07;920.27;;;;;;;;;;5066041;28;20371;-62
2020/12/26 21:34:56;;;;;;;1005.60;918.90;;;;;;;;;;5070981;28;20309;-63
2020/12/26 21:37:22;;;;;;;1024.37;932.00;;;;;;;;;;5074796;28;20177;-62
2020/12/26 21:39:51;;;;;;;976.37;883.47;;;;;;;;;;5074246;28;20449;-63
2020/12/26 21:42:18;;;;;;;1044.60;943.10;;;;;;;;;;5075596;28;21090;-62
2020/12/26 21:44:45;;;;;;;826.70;759.60;;;;;;;;;;5072937;28;21020;-62
2020/12/26 21:47:12;;;;;;;835.63;770.20;;;;;;;;;;5070223;28;20234;-62
2020/12/26 21:49:39;;;;;;;855.57;782.10;;;;;;;;;;5078470;28;20185;-62
2020/12/26 21:52:05;;;;;;;884.43;816.33;;;;;;;;;;5079266;28;20184;-62
2020/12/26 21:54:32;;;;;;;871.93;792.50;;;;;;;;;;5078758;28;20286;-62
2020/12/26 21:56:58;;;;;;;821.17;754.33;;;;;;;;;;5079285;28;20672;-62
2020/12/26 21:59:25;;;;;;;787.33;724.03;;;;;;;;;;5080147;28;20261;-63
2020/12/26 22:01:52;;;;;;;619.23;576.53;;;;;;;;;;5079438;28;20188;-63
2020/12/26 22:04:18;;;;;;;813.50;748.67;;;;;;;;;;5079567;28;20311;-62
2020/12/26 22:06:45;;;;;;;743.73;690.30;;;;;;;;;;5067219;28;20349;-63
2020/12/26 22:09:12;;;;;;;668.70;622.97;;;;;;;;;;5064951;28;20192;-62
2020/12/26 22:11:39;;;;;;;798.87;731.87;;;;;;;;;;5079853;28;20185;-63
2020/12/26 22:14:05;;;;;;;618.30;576.03;;;;;;;;;;5076261;28;20184;-63
2020/12/26 22:16:32;;;;;;;795.47;733.90;;;;;;;;;;5076353;28;20205;-63
2020/12/26 22:18:59;;;;;;;453.93;421.73;;;;;;;;;;5067987;28;20246;-63
2020/12/26 22:21:26;;;;;;;819.63;757.27;;;;;;;;;;5083259;28;20254;-64
2020/12/26 22:23:53;;;;;;;585.70;544.83;;;;;;;;;;5077523;28;20208;-63
2020/12/26 22:26:20;;;;;;;617.60;573.37;;;;;;;;;;5084778;28;20213;-64
2020/12/26 22:28:47;;;;;;;497.00;464.93;;;;;;;;;;5084171;28;20216;-62
2020/12/26 22:31:16;;;;;;;520.50;484.30;;;;;;;;;;5075980;28;20186;-63
2020/12/26 22:33:43;;;;;;;671.20;619.23;;;;;;;;;;5083723;28;20288;-63
2020/12/26 22:36:10;;;;;;;527.00;493.90;;;;;;;;;;5083771;28;20206;-63
2020/12/26 22:38:37;;;;;;;723.33;666.97;;;;;;;;;;5079236;28;20170;-66
2020/12/26 22:41:05;;;;;;;634.97;588.60;;;;;;;;;;5073491;28;20273;-63
2020/12/26 22:43:32;;;;;;;579.33;537.37;;;;;;;;;;5072265;28;20194;-63
2020/12/26 22:45:59;;;;;;;586.83;546.97;;;;;;;;;;5070960;28;20184;-63
2020/12/26 22:48:25;;;;;;;700.63;645.03;;;;;;;;;;5074011;28;20174;-65
2020/12/26 22:50:52;;;;;;;405.90;381.53;;;;;;;;;;5077916;28;20260;-63
2020/12/26 22:53:20;;;;;;;694.63;638.83;;;;;;;;;;5084405;28;20219;-63
2020/12/26 22:55:47;;;;;;;680.50;626.53;;;;;;;;;;5083509;28;20249;-62
2020/12/26 22:58:13;;;;;;;583.03;541.17;;;;;;;;;;5083858;28;20347;-63
2020/12/26 23:00:43;;;;;;;619.90;576.47;;;;;;;;;;5076129;28;20197;-64
2020/12/26 23:03:10;;;;;;;672.20;621.70;;;;;;;;;;5073634;28;20197;-63
2020/12/26 23:05:37;;;;;;;728.13;670.00;;;;;;;;;;5075421;28;20194;-62
2020/12/26 23:08:04;;;;;;;511.80;477.20;;;;;;;;;;5083280;28;20223;-62
2020/12/26 23:10:30;;;;;;;765.77;707.83;;;;;;;;;;5078103;28;20273;-63
2020/12/26 23:12:57;;;;;;;596.17;551.47;;;;;;;;;;5081382;28;20193;-62
2020/12/26 23:15:28;;;;;;;766.47;703.20;;;;;;;;;;5079121;28;20242;-63
2020/12/26 23:17:56;;;;;;;627.57;580.67;;;;;;;;;;5075909;28;20722;-64
2020/12/26 23:20:22;;;;;;;594.53;552.20;;;;;;;;;;5076992;28;21018;-62
2020/12/26 23:22:49;;;;;;;665.07;612.40;;;;;;;;;;5076944;28;20247;-62
2020/12/26 23:25:17;;;;;;;686.03;631.77;;;;;;;;;;5076741;28;20188;-63
2020/12/26 23:27:45;;;;;;;791.43;723.53;;;;;;;;;;5081324;28;20191;-62
2020/12/26 23:30:15;;;;;;;448.53;419.80;;;;;;;;;;5067025;28;20747;-63
2020/12/26 23:32:47;;;;;;;521.60;485.53;;;;;;;;;;5069184;28;20186;-62
2020/12/26 23:35:15;;;;;;;698.47;644.07;;;;;;;;;;5076739;28;20249;-62
2020/12/26 23:37:48;;;;;;;763.33;697.43;;;;;;;;;;5079169;28;20911;-62
2020/12/26 23:40:18;;;;;;;643.40;593.13;;;;;;;;;;5064686;28;20190;-62
2020/12/26 23:42:45;;;;;;;676.53;622.50;;;;;;;;;;5064690;28;20342;-62
2020/12/26 23:45:12;;;;;;;627.27;581.23;;;;;;;;;;5063004;28;20181;-63
2020/12/26 23:47:39;;;;;;;471.27;442.43;;;;;;;;;;5066280;28;20192;-63
2020/12/26 23:50:09;;;;;;;565.13;524.77;;;;;;;;;;5069803;28;20263;-61
2020/12/26 23:52:36;;;;;;;532.37;496.03;;;;;;;;;;5057690;28;20667;-64
2020/12/26 23:55:03;;;;;;;745.47;684.73;;;;;;;;;;5057108;28;20238;-61
2020/12/26 23:57:29;;;;;;;596.63;553.63;;;;;;;;;;5070918;28;20996;-63
2020/12/26 23:59:57;;;;;;;700.63;642.63;;;;;;;;;;5071116;28;20234;-63
